Time;durP1;ratioP1;P1;durP2;ratioP2;P2;SDS_P1;SDS_P2;PMS_P1;PMS_P2;Temp;Humidity;BMP_temperature;BMP_pressure;BME280_temperature;BME280_humidity;BME280_pressure;Samples;Min_cycle;Max_cycle;Signal;HPM_P1;HPM_P2
2024/03/31 00:01:44;;;;;;;9.00;3.70;;;;;;;12.07;66.83;99206.52;107276;1256;60252;-38
2024/03/31 00:04:11;;;;;;;10.70;4.00;;;;;;;12.04;67.04;99211.31;107189;1256;60287;-38
2024/03/31 00:06:39;;;;;;;8.70;4.00;;;;;;;12.00;67.07;99210.64;107230;1256;72568;-38
2024/03/31 00:09:06;;;;;;;9.70;3.80;;;;;;;11.97;67.20;99207.34;107015;1256;66743;-38
2024/03/31 00:11:33;;;;;;;10.00;3.80;;;;;;;11.92;67.39;99207.52;107203;1256;72700;-38
2024/03/31 00:14:01;;;;;;;11.00;3.60;;;;;;;11.87;67.58;99211.89;107201;1256;60454;-38
2024/03/31 00:16:28;;;;;;;15.00;4.60;;;;;;;11.83;67.76;99213.63;107122;1256;60332;-38
2024/03/31 00:18:55;;;;;;;11.20;4.00;;;;;;;11.78;67.83;99215.65;107045;1256;72964;-38
2024/03/31 00:21:23;;;;;;;10.40;3.90;;;;;;;11.79;67.94;99212.04;107073;1257;66907;-38
2024/03/31 00:23:50;;;;;;;9.40;4.50;;;;;;;11.80;68.03;99211.44;107096;1256;72718;-38
2024/03/31 00:26:17;;;;;;;10.40;4.30;;;;;;;11.75;68.36;99210.90;107097;1257;60508;-38
2024/03/31 00:28:47;;;;;;;11.20;4.40;;;;;;;11.69;68.51;99208.92;107092;1257;60384;-38
2024/03/31 00:31:15;;;;;;;7.60;3.80;;;;;;;11.67;68.83;99205.57;107149;1256;73857;-38
2024/03/31 00:33:42;;;;;;;9.60;4.30;;;;;;;11.63;69.13;99198.69;107224;1256;67582;-38
2024/03/31 00:36:09;;;;;;;11.40;4.70;;;;;;;11.58;69.22;99195.85;107059;1255;72756;-38
2024/03/31 00:38:37;;;;;;;16.20;4.50;;;;;;;11.54;69.53;99197.43;107167;1257;61009;-38
2024/03/31 00:41:04;;;;;;;10.40;3.90;;;;;;;11.58;69.61;99196.86;107103;1257;60420;-38
2024/03/31 00:43:32;;;;;;;10.90;4.70;;;;;;;11.62;69.58;99196.13;107212;1256;72558;-38
2024/03/31 00:45:59;;;;;;;10.90;4.60;;;;;;;11.58;69.86;99191.80;107226;1256;67908;-38
2024/03/31 00:48:26;;;;;;;11.30;4.50;;;;;;;11.55;70.04;99193.64;107174;1256;72719;-38
2024/03/31 00:50:54;;;;;;;12.80;4.40;;;;;;;11.54;70.24;99195.25;107032;1258;60409;-38
2024/03/31 00:53:21;;;;;;;9.40;4.50;;;;;;;11.51;70.40;99196.46;107238;1256;60623;-38
2024/03/31 00:55:49;;;;;;;10.90;4.50;;;;;;;11.47;70.57;99190.14;107209;1257;73150;-38
2024/03/31 00:58:16;;;;;;;13.20;4.70;;;;;;;11.48;70.61;99194.70;107055;1256;67579;-38
2024/03/31 01:00:44;;;;;;;8.20;3.90;;;;;;;11.52;70.58;99194.60;107197;1256;72717;-38
2024/03/31 01:03:11;;;;;;;13.30;4.20;;;;;;;11.54;70.67;99195.80;107203;1262;60322;-39
2024/03/31 01:05:39;;;;;;;9.60;4.20;;;;;;;11.52;70.77;99191.19;107207;1256;60438;-38
2024/03/31 01:08:07;;;;;;;11.60;4.30;;;;;;;11.53;70.82;99194.55;107182;1256;73838;-38
2024/03/31 01:10:34;;;;;;;9.40;4.30;;;;;;;11.52;70.89;99197.17;107159;1256;66420;-37
2024/03/31 01:13:02;;;;;;;10.80;4.70;;;;;;;11.50;70.95;99196.36;107162;1256;72682;-37
2024/03/31 01:15:29;;;;;;;12.00;4.40;;;;;;;11.46;71.04;99197.48;107144;1256;61625;-37
2024/03/31 01:17:56;;;;;;;11.90;4.30;;;;;;;11.48;71.13;99193.01;107143;1257;60300;-37
2024/03/31 01:20:24;;;;;;;13.30;4.10;;;;;;;11.51;71.01;99193.83;107110;1259;73821;-37
2024/03/31 01:22:51;;;;;;;9.50;4.40;;;;;;;11.50;71.14;99196.76;107162;1257;66422;-38
2024/03/31 01:25:18;;;;;;;11.30;4.60;;;;;;;11.46;71.27;99200.04;107139;1258;72720;-37
2024/03/31 01:27:46;;;;;;;14.50;5.00;;;;;;;11.43;71.28;99206.98;107239;1257;61203;-37
2024/03/31 01:30:13;;;;;;;12.20;4.50;;;;;;;11.39;71.51;99210.87;107247;1257;61215;-38
2024/03/31 01:32:41;;;;;;;9.10;4.30;;;;;;;11.33;71.73;99209.41;107279;1257;74630;-37
2024/03/31 01:35:08;;;;;;;14.00;4.70;;;;;;;11.29;71.95;99213.77;107225;1257;67580;-37
2024/03/31 01:37:36;;;;;;;11.50;4.90;;;;;;;11.31;71.78;99216.13;107226;1257;72711;-37
2024/03/31 01:40:04;;;;;;;12.20;4.70;;;;;;;11.33;71.82;99215.77;107146;1257;61189;-37
2024/03/31 01:42:31;;;;;;;9.60;4.70;;;;;;;11.31;72.16;99218.92;107076;1257;61234;-37
2024/03/31 01:44:59;;;;;;;12.10;4.80;;;;;;;11.29;72.33;99220.61;107240;1261;74676;-37
2024/03/31 01:47:26;;;;;;;10.30;4.80;;;;;;;11.25;72.41;99222.86;107238;1257;67577;-38
2024/03/31 01:49:54;;;;;;;13.10;4.80;;;;;;;11.24;72.59;99220.44;107074;1258;71836;-38
2024/03/31 01:52:22;;;;;;;10.20;4.00;;;;;;;11.21;72.69;99230.04;107480;1254;61733;-38
2024/03/31 01:54:49;;;;;;;8.00;4.20;;;;;;;11.23;72.55;99225.02;107625;1253;59755;-38
2024/03/31 01:57:17;;;;;;;10.90;4.50;;;;;;;11.26;72.61;99225.92;107517;1254;74673;-38
2024/03/31 01:59:44;;;;;;;10.70;4.70;;;;;;;11.24;72.67;99222.00;107625;1254;67997;-38
2024/03/31 02:02:12;;;;;;;10.80;4.50;;;;;;;11.19;72.89;99219.98;107392;1254;72658;-38
2024/03/31 02:04:39;;;;;;;8.40;4.10;;;;;;;11.14;73.10;99225.50;107384;1259;61306;-38
2024/03/31 02:07:06;;;;;;;8.60;4.50;;;;;;;11.13;73.27;99228.91;107391;1252;61211;-38
2024/03/31 02:09:34;;;;;;;16.70;4.40;;;;;;;11.10;73.34;99229.63;107291;1254;73427;-38
2024/03/31 02:12:01;;;;;;;10.20;4.60;;;;;;;10.87;73.30;99193.89;107497;1253;65291;-38
2024/03/31 02:14:32;;;;;;;13.40;4.50;;;;;;;11.15;73.37;99234.43;107373;1258;72788;-38
2024/03/31 02:16:59;;;;;;;11.60;4.30;;;;;;;11.14;73.37;99235.96;107332;1257;61294;-38
2024/03/31 02:19:27;;;;;;;11.70;4.80;;;;;;;11.12;73.55;99237.73;107355;1253;59984;-38
2024/03/31 02:21:54;;;;;;;13.60;5.70;;;;;;;11.10;73.80;99237.06;107294;1253;73476;-38
2024/03/31 02:24:21;;;;;;;10.60;4.70;;;;;;;11.06;73.90;99236.32;107283;1256;67929;-38
2024/03/31 02:26:49;;;;;;;11.60;4.60;;;;;;;11.02;74.01;99235.02;107454;1255;72684;-37
2024/03/31 02:29:18;;;;;;;11.50;4.90;;;;;;;11.06;73.96;99239.10;107303;1256;61651;-38
2024/03/31 02:31:45;;;;;;;14.50;4.50;;;;;;;11.12;73.88;99237.95;107443;1254;61234;-38
2024/03/31 02:34:14;;;;;;;10.60;4.80;;;;;;;11.13;74.02;99237.90;107451;1254;74610;-38
2024/03/31 02:36:42;;;;;;;12.00;4.60;;;;;;;11.14;73.91;99238.52;107494;1256;66348;-38
2024/03/31 02:39:09;;;;;;;10.20;4.60;;;;;;;11.15;73.88;99236.85;107229;1257;71380;-38
2024/03/31 02:41:37;;;;;;;12.40;5.10;;;;;;;11.15;73.82;99232.89;107342;1258;61610;-38
2024/03/31 02:44:04;;;;;;;13.80;4.90;;;;;;;11.15;73.79;99232.88;107275;1256;60006;-38
2024/03/31 02:46:32;;;;;;;10.90;4.90;;;;;;;11.17;73.58;99231.83;107304;1254;73457;-38
2024/03/31 02:48:59;;;;;;;12.10;5.40;;;;;;;11.19;73.50;99233.95;107301;1256;66444;-38
2024/03/31 02:51:27;;;;;;;11.10;5.10;;;;;;;11.18;73.82;99232.48;107261;1256;71412;-38
2024/03/31 02:53:54;;;;;;;10.40;4.90;;;;;;;11.16;73.81;99232.75;107188;1256;60135;-38
2024/03/31 02:56:22;;;;;;;12.60;5.20;;;;;;;11.13;73.86;99230.84;107396;1256;61317;-37
2024/03/31 02:58:49;;;;;;;10.40;5.40;;;;;;;11.10;73.88;99227.05;107263;1256;74651;-37
2024/03/31 03:01:16;;;;;;;10.20;4.90;;;;;;;11.07;74.01;99226.58;107171;1255;68173;-38
2024/03/31 03:03:45;;;;;;;10.30;4.50;;;;;;;11.10;74.10;99228.94;107286;1256;71411;-38
2024/03/31 03:06:13;;;;;;;10.80;5.10;;;;;;;11.16;73.85;99227.63;107339;1254;60991;-38
2024/03/31 03:08:40;;;;;;;13.10;5.30;;;;;;;11.11;73.90;99217.02;107312;1255;61089;-38
2024/03/31 03:11:12;;;;;;;10.70;4.70;;;;;;;11.15;73.93;99228.39;107344;1255;73450;-37
2024/03/31 03:13:40;;;;;;;12.10;5.40;;;;;;;11.14;73.92;99228.45;107274;1256;68124;-38
2024/03/31 03:16:07;;;;;;;8.60;5.20;;;;;;;11.12;74.00;99230.99;107267;1256;71709;-38
2024/03/31 03:18:35;;;;;;;10.50;4.60;;;;;;;11.09;74.04;99231.85;107325;1253;61676;-38
2024/03/31 03:21:05;;;;;;;14.80;5.20;;;;;;;11.09;74.15;99232.33;107453;1252;61228;-38
2024/03/31 03:23:32;;;;;;;15.10;4.90;;;;;;;11.10;74.29;99236.60;107534;1258;73009;-38
2024/03/31 03:26:00;;;;;;;16.00;5.50;;;;;;;11.07;74.51;99233.86;107579;1253;66281;-38
2024/03/31 03:28:28;;;;;;;11.40;4.90;;;;;;;11.06;74.78;99232.45;107588;1253;71403;-38
2024/03/31 03:30:55;;;;;;;14.70;5.20;;;;;;;11.03;74.78;99228.59;107399;1258;61307;-38
2024/03/31 03:33:24;;;;;;;13.00;5.20;;;;;;;11.04;74.85;99236.81;107499;1257;60979;-38
2024/03/31 03:35:56;;;;;;;10.70;4.90;;;;;;;11.02;74.96;99235.17;107339;1253;73344;-38
2024/03/31 03:38:24;;;;;;;12.90;4.80;;;;;;;11.05;74.93;99234.67;107573;1253;67510;-38
2024/03/31 03:40:53;;;;;;;14.10;4.90;;;;;;;11.08;74.83;99233.80;107551;1253;71401;-38
2024/03/31 03:43:21;;;;;;;15.30;5.40;;;;;;;11.06;75.02;99236.16;107307;1257;61774;-38
2024/03/31 03:45:52;;;;;;;15.20;4.80;;;;;;;11.03;74.94;99237.44;107565;1253;59221;-38
2024/03/31 03:48:19;;;;;;;14.10;5.30;;;;;;;11.03;74.92;99236.66;107527;1254;73426;-38
2024/03/31 03:50:47;;;;;;;11.00;5.40;;;;;;;11.02;75.08;99233.70;107568;1253;66303;-38
2024/03/31 03:53:14;;;;;;;12.90;4.50;;;;;;;11.02;74.96;99232.45;107362;1252;72713;-38
2024/03/31 03:55:43;;;;;;;14.00;5.50;;;;;;;10.99;74.92;99222.82;107284;1256;61346;-38
2024/03/31 03:58:12;;;;;;;11.70;5.10;;;;;;;11.10;74.74;99234.77;107364;1259;61190;-38
2024/03/31 04:00:40;;;;;;;15.00;4.80;;;;;;;11.10;74.95;99236.07;107375;1253;73987;-38
2024/03/31 04:03:08;;;;;;;13.50;4.60;;;;;;;11.08;75.08;99233.71;107420;1253;68086;-38
2024/03/31 04:05:35;;;;;;;12.80;5.00;;;;;;;11.05;75.15;99232.10;107326;1253;72100;-38
2024/03/31 04:08:03;;;;;;;11.40;5.10;;;;;;;11.01;75.22;99229.27;107432;1257;61244;-38
2024/03/31 04:10:31;;;;;;;16.40;5.00;;;;;;;10.99;75.24;99230.09;107373;1253;60690;-38
2024/03/31 04:12:59;;;;;;;12.50;5.70;;;;;;;11.03;75.15;99232.48;107330;1253;74729;-38
2024/03/31 04:15:26;;;;;;;16.40;4.90;;;;;;;11.08;75.11;99233.73;107356;1253;68131;-38
2024/03/31 04:17:54;;;;;;;15.10;4.90;;;;;;;11.07;75.15;99234.88;107535;1257;72807;-38
2024/03/31 04:20:21;;;;;;;19.20;5.80;;;;;;;11.06;75.29;99239.89;107377;1253;61272;-38
2024/03/31 04:22:48;;;;;;;13.30;5.00;;;;;;;11.06;75.37;99242.52;107373;1253;61090;-38
2024/03/31 04:25:16;;;;;;;14.70;5.30;;;;;;;11.08;75.27;99247.13;107600;1253;72421;-38
2024/03/31 04:27:44;;;;;;;13.70;5.40;;;;;;;11.08;75.39;99248.84;107555;1253;67598;-38
2024/03/31 04:30:11;;;;;;;11.70;4.90;;;;;;;11.12;75.30;99244.86;107393;1254;71381;-38
2024/03/31 04:32:40;;;;;;;13.30;5.20;;;;;;;11.19;75.11;99244.34;107387;1255;61400;-38
2024/03/31 04:35:07;;;;;;;12.00;5.00;;;;;;;11.18;75.14;99242.47;107309;1254;61102;-38
2024/03/31 04:37:35;;;;;;;12.20;5.20;;;;;;;11.19;75.45;99244.48;107405;1252;73388;-38
2024/03/31 04:40:04;;;;;;;12.50;4.90;;;;;;;11.20;75.39;99247.23;107386;1253;66771;-38
2024/03/31 04:42:31;;;;;;;15.10;5.50;;;;;;;11.21;75.49;99245.75;107343;1256;73144;-38
2024/03/31 04:44:58;;;;;;;15.90;5.50;;;;;;;11.20;75.49;99246.38;107532;1255;61125;-38
2024/03/31 04:47:26;;;;;;;11.40;4.80;;;;;;;11.25;75.41;99245.59;107521;1254;61138;-38
2024/03/31 04:49:54;;;;;;;11.10;4.90;;;;;;;11.29;75.50;99251.23;107550;1253;73434;-38
2024/03/31 04:52:25;;;;;;;14.20;5.20;;;;;;;11.28;75.61;99253.45;107666;1253;66529;-38
2024/03/31 04:54:53;;;;;;;11.70;4.80;;;;;;;11.26;75.88;99255.39;107395;1253;70866;-38
2024/03/31 04:57:22;;;;;;;13.50;5.60;;;;;;;11.26;76.17;99254.61;107429;1256;61157;-38
2024/03/31 04:59:50;;;;;;;18.00;5.50;;;;;;;11.29;76.32;99261.14;107557;1252;61241;-38
2024/03/31 05:02:18;;;;;;;18.30;6.20;;;;;;;11.36;76.31;99265.12;107629;1253;74650;-38
2024/03/31 05:04:46;;;;;;;14.00;5.00;;;;;;;11.42;76.32;99270.48;107692;1257;66779;-38
2024/03/31 05:07:13;;;;;;;16.40;6.10;;;;;;;11.43;76.46;99273.44;107719;1257;71474;-38
2024/03/31 05:09:41;;;;;;;11.40;5.20;;;;;;;11.43;76.76;99277.33;107512;1254;61135;-38
2024/03/31 05:12:08;;;;;;;13.90;5.30;;;;;;;11.45;76.86;99277.83;107599;1255;61132;-38
2024/03/31 05:14:36;;;;;;;15.60;5.10;;;;;;;11.46;76.94;99280.63;107669;1254;73382;-38
2024/03/31 05:17:03;;;;;;;20.80;5.70;;;;;;;11.52;76.78;99276.13;107453;1257;66278;-38
2024/03/31 05:19:31;;;;;;;12.40;5.60;;;;;;;11.56;76.71;99274.11;107509;1257;71402;-38
2024/03/31 05:21:59;;;;;;;15.60;5.80;;;;;;;11.54;76.97;99271.90;107489;1254;60490;-38
2024/03/31 05:24:26;;;;;;;16.10;5.50;;;;;;;11.53;77.19;99271.10;107419;1253;60113;-38
2024/03/31 05:26:54;;;;;;;15.20;5.60;;;;;;;11.54;77.44;99272.44;107484;1254;73777;-38
2024/03/31 05:29:21;;;;;;;13.80;5.30;;;;;;;11.61;77.30;99275.33;107459;1257;66807;-38
2024/03/31 05:31:50;;;;;;;15.70;5.70;;;;;;;11.72;77.45;99278.27;107468;1257;71381;-38
2024/03/31 05:34:38;;;;;;;18.60;6.00;;;;;;;11.79;77.49;99276.74;107170;1254;61195;-38
2024/03/31 05:37:05;;;;;;;13.90;5.90;;;;;;;11.84;77.49;99274.48;107515;1254;60244;-38
2024/03/31 05:39:33;;;;;;;16.50;6.00;;;;;;;11.89;77.46;99267.71;107570;1259;72822;-38
2024/03/31 05:42:00;;;;;;;15.50;5.10;;;;;;;12.00;77.23;99259.30;107494;1257;66351;-38
2024/03/31 05:44:28;;;;;;;15.50;6.20;;;;;;;12.12;76.84;99260.53;107521;1253;71398;-38
2024/03/31 05:46:55;;;;;;;16.20;5.60;;;;;;;12.19;76.68;99258.42;107525;1258;61226;-38
2024/03/31 05:49:23;;;;;;;16.40;6.00;;;;;;;12.24;76.48;99260.11;107464;1254;61109;-38
2024/03/31 05:51:50;;;;;;;17.70;6.00;;;;;;;12.31;76.47;99259.88;107471;1257;74667;-38
2024/03/31 05:54:18;;;;;;;15.40;5.70;;;;;;;12.38;76.37;99258.00;107379;1257;67637;-38
2024/03/31 05:56:45;;;;;;;15.50;5.30;;;;;;;12.49;76.10;99255.08;107372;1259;72672;-37
2024/03/31 05:59:14;;;;;;;18.90;6.60;;;;;;;12.64;75.66;99249.86;107547;1254;61241;-37
2024/03/31 06:01:41;;;;;;;14.90;5.90;;;;;;;12.74;75.54;99250.24;107558;1253;61199;-37
2024/03/31 06:04:09;;;;;;;17.20;6.70;;;;;;;12.82;74.82;99251.88;107566;1257;74692;-37
2024/03/31 06:06:36;;;;;;;17.20;6.10;;;;;;;12.91;74.43;99248.67;107553;1259;68094;-37
2024/03/31 06:09:04;;;;;;;21.20;6.20;;;;;;;12.99;74.01;99250.14;107510;1257;71606;-37
2024/03/31 06:11:31;;;;;;;20.00;5.90;;;;;;;13.07;73.42;99251.05;107466;1254;61222;-37
2024/03/31 06:13:59;;;;;;;16.80;5.60;;;;;;;13.21;72.97;99255.91;107545;1257;61166;-37
2024/03/31 06:16:27;;;;;;;19.00;6.20;;;;;;;13.35;72.47;99261.84;107545;1255;73363;-37
2024/03/31 06:18:54;;;;;;;14.70;5.40;;;;;;;13.45;72.64;99262.21;107487;1259;67582;-37
2024/03/31 06:21:22;;;;;;;23.10;6.80;;;;;;;13.55;72.54;99262.58;107508;1259;71393;-37
2024/03/31 06:23:50;;;;;;;16.90;6.10;;;;;;;13.66;71.73;99260.91;107457;1254;61203;-38
2024/03/31 06:26:17;;;;;;;16.50;6.20;;;;;;;13.74;71.53;99260.55;107407;1255;61331;-38
2024/03/31 06:28:45;;;;;;;22.90;5.70;;;;;;;13.89;71.11;99259.84;107546;1253;73449;-38
2024/03/31 06:31:12;;;;;;;19.00;6.20;;;;;;;14.06;71.00;99264.04;107334;1254;66304;-38
2024/03/31 06:33:43;;;;;;;15.70;5.60;;;;;;;14.19;70.07;99257.22;107507;1254;71492;-38
2024/03/31 06:36:11;;;;;;;23.40;5.80;;;;;;;14.30;69.80;99258.19;107499;1254;61311;-38
2024/03/31 06:38:38;;;;;;;21.00;6.60;;;;;;;14.43;69.53;99259.39;107508;1257;61101;-38
2024/03/31 06:41:06;;;;;;;15.90;6.00;;;;;;;14.55;69.08;99257.08;107510;1257;73528;-38
2024/03/31 06:43:33;;;;;;;18.20;5.90;;;;;;;14.61;68.54;99245.32;107411;1255;67899;-38
2024/03/31 06:46:01;;;;;;;21.30;6.10;;;;;;;14.78;68.12;99252.19;107517;1254;71462;-38
2024/03/31 06:48:28;;;;;;;16.00;5.60;;;;;;;14.95;67.80;99253.52;107463;1254;61771;-38
2024/03/31 06:50:55;;;;;;;20.60;6.30;;;;;;;15.13;66.79;99251.31;107512;1258;61340;-38
2024/03/31 06:53:23;;;;;;;19.40;6.60;;;;;;;15.27;66.80;99256.05;107538;1254;73430;-38
2024/03/31 06:55:50;;;;;;;20.60;6.30;;;;;;;15.40;66.58;99253.60;107437;1254;66632;-38
2024/03/31 06:58:18;;;;;;;18.60;6.10;;;;;;;15.55;65.76;99259.45;107407;1258;72732;-38
2024/03/31 07:00:45;;;;;;;20.40;5.70;;;;;;;15.70;64.78;99265.89;107512;1254;61190;-38
2024/03/31 07:03:12;;;;;;;16.10;5.90;;;;;;;15.83;64.49;99266.08;107441;1254;61299;-38
2024/03/31 07:05:40;;;;;;;18.50;5.40;;;;;;;15.95;64.31;99268.53;107552;1255;73376;-38
2024/03/31 07:08:07;;;;;;;21.00;6.20;;;;;;;16.05;63.19;99272.31;107460;1255;67560;-38
2024/03/31 07:10:36;;;;;;;24.10;6.00;;;;;;;16.14;62.91;99272.27;107534;1254;71433;-38
2024/03/31 07:13:03;;;;;;;19.00;6.10;;;;;;;16.23;62.92;99277.06;107510;1257;61125;-38
2024/03/31 07:15:31;;;;;;;20.50;5.60;;;;;;;16.33;62.76;99268.41;107554;1254;61234;-38
2024/03/31 07:18:06;;;;;;;19.90;5.70;;;;;;;16.44;62.88;99274.74;107511;1253;73399;-38
2024/03/31 07:20:34;;;;;;;19.30;5.90;;;;;;;16.65;61.66;99276.27;107427;1260;66448;-38
2024/03/31 07:23:02;;;;;;;18.50;6.30;;;;;;;16.82;60.95;99278.42;107491;1254;72696;-38
2024/03/31 07:25:33;;;;;;;18.40;5.80;;;;;;;16.94;61.01;99271.67;107306;1257;61244;-38
2024/03/31 07:28:01;;;;;;;19.80;5.50;;;;;;;17.09;60.88;99270.46;107377;1254;60013;-38
2024/03/31 07:30:29;;;;;;;17.30;5.80;;;;;;;17.24;60.54;99274.55;107346;1254;73365;-38
2024/03/31 07:32:56;;;;;;;16.00;5.70;;;;;;;17.39;60.45;99270.27;107445;1258;66785;-38
2024/03/31 07:35:24;;;;;;;16.40;6.20;;;;;;;17.54;60.23;99268.39;107458;1254;72712;-38
2024/03/31 07:37:51;;;;;;;13.20;5.10;;;;;;;17.69;59.34;99265.11;107529;1254;61233;-38
2024/03/31 07:40:18;;;;;;;17.00;5.80;;;;;;;17.82;58.62;99260.79;107479;1254;61315;-38
2024/03/31 07:42:46;;;;;;;15.90;5.20;;;;;;;17.95;57.91;99255.55;107528;1257;73650;-38
2024/03/31 07:45:13;;;;;;;19.30;5.60;;;;;;;18.10;57.91;99258.09;107515;1254;67637;-38
2024/03/31 07:47:41;;;;;;;14.80;5.90;;;;;;;18.26;56.71;99261.56;107509;1254;71494;-38
2024/03/31 07:50:09;;;;;;;15.80;5.50;;;;;;;18.40;55.46;99269.06;107473;1254;61337;-38
2024/03/31 07:52:38;;;;;;;17.10;5.40;;;;;;;18.48;55.64;99267.05;107515;1253;61107;-38
2024/03/31 07:55:07;;;;;;;20.00;5.50;;;;;;;18.58;55.35;99266.63;107554;1253;73519;-38
2024/03/31 07:57:35;;;;;;;19.80;6.00;;;;;;;18.74;54.53;99264.97;107537;1257;67948;-38
2024/03/31 08:00:03;;;;;;;20.50;5.60;;;;;;;18.88;54.07;99261.60;107496;1254;71446;-38
2024/03/31 08:02:38;;;;;;;14.60;5.40;;;;;;;19.03;53.90;99260.56;107496;1255;61180;-38
2024/03/31 08:05:06;;;;;;;19.90;6.20;;;;;;;19.15;52.96;99262.56;107521;1254;62223;-38
2024/03/31 08:07:33;;;;;;;19.10;5.80;;;;;;;19.25;52.61;99258.46;107410;1254;73425;-38
2024/03/31 08:10:03;;;;;;;18.20;5.30;;;;;;;19.34;52.61;99254.91;107499;1254;67139;-38
2024/03/31 08:12:30;;;;;;;15.80;5.00;;;;;;;19.48;51.98;99260.66;107533;1254;72825;-38
2024/03/31 08:14:58;;;;;;;17.40;5.80;;;;;;;19.58;51.70;99257.09;107492;1254;61125;-38
2024/03/31 08:17:25;;;;;;;17.90;5.60;;;;;;;19.69;52.17;99256.32;107506;1254;61448;-38
2024/03/31 08:19:52;;;;;;;14.30;4.90;;;;;;;19.84;51.38;99251.00;107482;1253;74699;-39
2024/03/31 08:22:20;;;;;;;18.60;4.90;;;;;;;19.99;50.85;99247.45;107457;1254;68033;-38
2024/03/31 08:24:48;;;;;;;13.30;5.50;;;;;;;20.13;50.95;99249.52;107500;1257;73065;-38
2024/03/31 08:27:15;;;;;;;19.20;5.20;;;;;;;20.27;50.72;99246.23;107463;1254;61266;-38
2024/03/31 08:29:44;;;;;;;18.60;5.40;;;;;;;20.41;50.16;99240.59;107507;1253;61106;-38
2024/03/31 08:32:11;;;;;;;21.10;5.20;;;;;;;20.54;49.46;99241.86;107498;1254;74664;-38
2024/03/31 08:34:38;;;;;;;15.80;5.20;;;;;;;20.65;49.74;99233.27;107530;1255;66723;-38
2024/03/31 08:37:06;;;;;;;17.70;5.20;;;;;;;20.78;49.08;99229.47;107509;1254;70410;-38
2024/03/31 08:39:34;;;;;;;17.00;5.10;;;;;;;20.92;47.66;99228.09;107472;1253;61349;-38
2024/03/31 08:42:13;;;;;;;21.30;5.00;;;;;;;21.04;47.15;99221.73;107495;1254;60542;-38
2024/03/31 08:44:42;;;;;;;15.30;4.10;;;;;;;21.14;46.80;99216.30;107473;1253;74668;-38
2024/03/31 08:47:11;;;;;;;13.50;4.70;;;;;;;21.23;47.59;99210.95;107460;1254;68205;-38
2024/03/31 08:49:39;;;;;;;20.80;5.70;;;;;;;21.43;47.41;99211.82;107444;1254;71536;-38
2024/03/31 08:52:07;;;;;;;18.40;5.30;;;;;;;21.62;47.45;99205.85;107462;1254;61381;-38
2024/03/31 08:54:35;;;;;;;17.80;5.30;;;;;;;21.84;47.64;99201.98;107456;1254;61225;-38
2024/03/31 08:57:05;;;;;;;18.10;4.80;;;;;;;22.06;46.91;99193.38;107512;1254;74682;-38
2024/03/31 08:59:33;;;;;;;14.70;5.00;;;;;;;22.41;46.45;99204.15;107517;1254;66433;-38
2024/03/31 09:02:00;;;;;;;13.80;4.60;;;;;;;22.67;44.93;99203.40;107398;1254;72938;-38
2024/03/31 09:04:28;;;;;;;14.30;4.40;;;;;;;22.81;44.31;99198.36;107486;1254;61215;-39
2024/03/31 09:06:56;;;;;;;17.50;5.20;;;;;;;22.98;44.30;99201.50;107528;1254;60096;-39
2024/03/31 09:09:24;;;;;;;18.00;4.70;;;;;;;23.14;42.86;99206.09;107489;1254;76842;-38
2024/03/31 09:11:51;;;;;;;14.50;4.60;;;;;;;23.26;41.60;99200.06;107510;1253;67486;-39
2024/03/31 09:14:19;;;;;;;15.70;4.80;;;;;;;23.32;41.09;99199.51;107439;1259;74832;-39
2024/03/31 09:16:48;;;;;;;19.00;4.60;;;;;;;23.42;40.77;99189.68;107511;1257;61035;-39
2024/03/31 09:19:15;;;;;;;24.50;5.80;;;;;;;23.52;40.79;99191.89;107513;1254;59999;-39
2024/03/31 09:21:44;;;;;;;15.40;5.10;;;;;;;23.65;40.58;99187.06;107515;1256;76943;-39
2024/03/31 09:24:14;;;;;;;15.30;4.70;;;;;;;23.82;40.90;99187.75;107402;1253;68498;-39
2024/03/31 09:26:41;;;;;;;19.00;5.30;;;;;;;24.05;40.63;99188.94;107470;1254;72921;-39
2024/03/31 09:29:09;;;;;;;15.30;4.80;;;;;;;24.26;39.86;99191.46;107482;1254;61270;-39
2024/03/31 09:31:36;;;;;;;14.60;4.40;;;;;;;24.41;39.98;99186.10;107386;1254;153202;-39
2024/03/31 09:36:08;;;;;;;11.80;4.00;;;;;;;24.62;38.81;99184.16;104122;1293;600594;-38
2024/03/31 09:38:35;;;;;;;14.00;4.50;;;;;;;24.71;38.28;99187.10;106607;1267;59535;-38
2024/03/31 09:41:03;;;;;;;15.50;4.30;;;;;;;24.79;38.17;99186.38;106496;1267;60142;-38
2024/03/31 09:43:30;;;;;;;13.30;4.20;;;;;;;24.84;37.96;99180.16;106557;1273;73184;-38
2024/03/31 09:45:58;;;;;;;15.40;4.60;;;;;;;24.89;38.31;99177.76;106477;1266;66971;-38
2024/03/31 09:48:26;;;;;;;11.90;4.30;;;;;;;24.99;38.48;99179.30;106529;1267;73330;-38
2024/03/31 09:50:58;;;;;;;17.00;4.80;;;;;;;25.12;38.14;99175.98;106650;1267;157990;-38
2024/03/31 09:53:27;;;;;;;14.30;4.20;;;;;;;25.28;37.56;99172.51;106755;1265;59532;-39
2024/03/31 09:55:57;;;;;;;;;;;;;;;25.38;36.98;99169.50;106676;1272;71888;-38
2024/03/31 09:58:24;;;;;;;11.70;4.20;;;;;;;25.37;37.22;99159.48;106758;1267;67953;-38
2024/03/31 10:00:51;;;;;;;14.30;3.50;;;;;;;25.42;37.98;99162.90;106647;1270;71608;-39
2024/03/31 10:03:25;;;;;;;16.00;3.80;;;;;;;25.67;37.07;99161.58;106631;1266;60972;-38
2024/03/31 10:05:54;;;;;;;18.90;5.10;;;;;;;25.90;35.73;99167.33;107110;1258;60521;-38
2024/03/31 10:08:22;;;;;;;15.10;4.20;;;;;;;26.00;35.47;99164.08;107028;1258;72750;-39
2024/03/31 10:10:50;;;;;;;12.30;4.10;;;;;;;25.97;35.10;99164.43;107078;1261;67667;-39
2024/03/31 10:13:17;;;;;;;15.50;4.50;;;;;;;25.91;35.22;99159.23;106960;1260;74920;-39
2024/03/31 10:15:44;;;;;;;15.70;4.80;;;;;;;25.93;35.83;99155.77;106943;1257;60421;-37
2024/03/31 10:18:12;;;;;;;16.70;4.40;;;;;;;26.08;36.06;99157.45;107057;1257;60436;-38
2024/03/31 10:20:39;;;;;;;10.40;3.80;;;;;;;26.29;35.55;99157.21;107090;1262;74995;-38
2024/03/31 10:23:07;;;;;;;10.30;3.90;;;;;;;26.48;34.21;99155.92;107059;1258;66771;-39
2024/03/31 10:25:34;;;;;;;12.20;3.60;;;;;;;26.61;34.39;99153.98;107026;1262;74858;-39
2024/03/31 10:28:02;;;;;;;12.60;4.20;;;;;;;26.66;33.76;99152.17;107035;1262;60325;-39
2024/03/31 10:30:29;;;;;;;13.80;4.00;;;;;;;26.67;32.89;99154.11;107241;1262;60332;-39
2024/03/31 10:32:57;;;;;;;15.90;4.00;;;;;;;26.66;33.59;99148.48;107098;1256;73142;-39
2024/03/31 10:35:24;;;;;;;12.20;4.40;;;;;;;26.68;33.58;99140.07;107111;1258;67770;-39
2024/03/31 10:37:53;;;;;;;15.00;4.60;;;;;;;26.77;33.91;99139.85;107108;1262;73196;-39
2024/03/31 10:40:25;;;;;;;10.60;3.80;;;;;;;26.88;32.93;99134.04;106960;1263;60532;-39
2024/03/31 10:42:56;;;;;;;12.30;3.80;;;;;;;26.93;33.56;99123.71;107112;1256;60421;-39
2024/03/31 10:45:24;;;;;;;10.80;4.10;;;;;;;27.05;33.67;99126.58;107112;1257;74056;-39
2024/03/31 10:47:54;;;;;;;9.80;3.40;;;;;;;27.18;32.62;99121.73;106917;1257;66599;-38
2024/03/31 10:50:25;;;;;;;13.70;3.50;;;;;;;27.29;32.47;99118.23;107076;1262;73119;-38
2024/03/31 10:52:52;;;;;;;12.30;4.00;;;;;;;27.47;32.61;99119.77;107061;1262;62271;-38
2024/03/31 10:55:20;;;;;;;11.70;3.50;;;;;;;27.66;32.50;99119.35;107053;1263;59987;-39
2024/03/31 10:58:00;;;;;;;14.80;4.00;;;;;;;27.83;31.69;99119.13;107054;1257;73106;-39
2024/03/31 11:00:34;;;;;;;;;;;;;;;27.92;31.98;99111.20;107054;1257;66652;-39
2024/03/31 11:03:08;;;;;;;12.30;3.60;;;;;;;27.98;31.98;99110.70;107045;1257;72669;-40
2024/03/31 11:05:37;;;;;;;16.80;3.80;;;;;;;28.08;32.21;99110.02;107194;1263;60978;-39
2024/03/31 11:08:07;;;;;;;10.50;3.80;;;;;;;28.17;31.85;99103.28;107058;1262;60514;-39
2024/03/31 11:10:35;;;;;;;16.80;4.90;;;;;;;28.23;31.52;99103.63;106951;1259;74923;-39
2024/03/31 11:13:03;;;;;;;16.20;4.20;;;;;;;28.23;31.41;99101.24;106901;1264;67047;-39
2024/03/31 11:15:32;;;;;;;10.30;3.90;;;;;;;28.25;31.37;99095.70;106998;1257;72807;-40
2024/03/31 11:17:59;;;;;;;12.20;3.90;;;;;;;28.35;30.92;99088.95;107182;1262;60466;-40
2024/03/31 11:20:27;;;;;;;13.50;4.30;;;;;;;28.45;31.36;99084.62;106961;1263;60348;-40
2024/03/31 11:22:54;;;;;;;18.50;4.50;;;;;;;28.58;31.51;99080.61;107180;1257;74667;-40
2024/03/31 11:25:23;;;;;;;13.00;3.80;;;;;;;28.81;31.40;99081.27;107172;1257;66663;-40